createdAt,value
2018-12-10T00:00:31.343Z,12.77
2018-12-10T00:03:07.924Z,12.79
2018-12-10T00:05:40.283Z,12.57
2018-12-10T00:08:09.457Z,12.88
2018-12-10T00:10:41.622Z,12.84
2018-12-10T00:13:11.216Z,12.81
2018-12-10T00:15:40.416Z,13.05
2018-12-10T00:18:09.596Z,13.13
2018-12-10T00:20:39.660Z,13.18
2018-12-10T00:23:09.396Z,13.14
2018-12-10T00:25:38.670Z,12.95
2018-12-10T00:28:08.907Z,12.99
2018-12-10T00:30:38.217Z,13.10
2018-12-10T00:33:08.852Z,12.83
2018-12-10T00:35:38.483Z,12.98
2018-12-10T00:38:07.653Z,12.92
2018-12-10T00:40:36.819Z,13.03
2018-12-10T00:43:06.016Z,13.10
2018-12-10T00:45:35.679Z,13.08
2018-12-10T00:48:06.258Z,13.21
2018-12-10T00:50:35.621Z,13.25
2018-12-10T00:53:04.774Z,12.99
2018-12-10T00:55:35.500Z,13.17
2018-12-10T00:58:06.130Z,13.04
2018-12-10T01:00:35.346Z,12.76
2018-12-10T01:03:04.584Z,12.57
2018-12-10T01:05:33.783Z,12.75
2018-12-10T01:08:03.935Z,12.84
2018-12-10T01:10:33.156Z,12.77
2018-12-10T01:13:02.471Z,12.88
2018-12-10T01:15:31.671Z,13.01
2018-12-10T01:18:00.831Z,13.04
2018-12-10T01:20:32.144Z,13.05
2018-12-10T01:23:01.321Z,12.93
2018-12-10T01:25:30.503Z,12.80
2018-12-10T01:27:59.755Z,12.89
2018-12-10T01:30:28.937Z,12.81
2018-12-10T01:32:59.132Z,12.82
2018-12-10T01:35:28.363Z,12.80
2018-12-10T01:37:57.563Z,12.72
2018-12-10T01:40:26.838Z,12.41
2018-12-10T01:42:56.559Z,12.34
2018-12-10T01:45:27.131Z,12.37
2018-12-10T01:47:56.308Z,12.51
2018-12-10T01:50:25.584Z,12.34
2018-12-10T01:52:54.883Z,12.44
2018-12-10T01:55:24.064Z,12.45
2018-12-10T01:57:54.562Z,12.50
2018-12-10T02:00:23.858Z,12.52
2018-12-10T02:02:53.039Z,12.45
2018-12-10T02:05:23.324Z,12.33
2018-12-10T02:07:52.467Z,12.58
2018-12-10T02:10:23.421Z,12.73
2018-12-10T02:12:52.783Z,12.48
2018-12-10T02:15:22.051Z,12.64
2018-12-10T02:17:51.224Z,12.60
2018-12-10T02:20:20.566Z,12.49
2018-12-10T02:22:50.727Z,12.36
2018-12-10T02:25:19.931Z,12.23
2018-12-10T02:27:49.136Z,12.39
2018-12-10T02:30:18.394Z,12.38
2018-12-10T02:32:47.766Z,12.32
2018-12-10T02:35:19.004Z,12.17
2018-12-10T02:37:48.247Z,12.22
2018-12-10T02:40:17.491Z,12.25
2018-12-10T02:42:48.178Z,12.36
2018-12-10T02:45:17.876Z,12.21
2018-12-10T02:47:47.656Z,12.26
2018-12-10T02:50:17.155Z,12.25
2018-12-10T02:52:48.092Z,12.29
2018-12-10T02:56:46.815Z,12.25
2018-12-10T02:59:16.939Z,11.95
2018-12-10T03:01:46.131Z,12.05
2018-12-10T03:04:15.433Z,12.23
2018-12-10T03:06:44.603Z,12.34
2018-12-10T03:09:13.784Z,12.18
2018-12-10T03:11:44.587Z,12.19
2018-12-10T03:14:13.754Z,12.33
2018-12-10T03:16:43.162Z,12.29
2018-12-10T03:19:13.456Z,12.16
2018-12-10T03:21:42.695Z,12.05
2018-12-10T03:24:12.771Z,12.08
2018-12-10T03:26:42.035Z,12.11
2018-12-10T03:29:11.254Z,12.19
2018-12-10T03:31:40.448Z,12.06
2018-12-10T03:34:09.721Z,11.88
2018-12-10T03:36:40.203Z,11.89
2018-12-10T03:39:09.403Z,12.24
2018-12-10T03:41:38.626Z,12.21
2018-12-10T03:44:07.785Z,12.08
2018-12-10T03:46:37.001Z,12.14
2018-12-10T03:49:07.211Z,12.21
2018-12-10T03:51:36.387Z,12.05
2018-12-10T03:54:06.632Z,11.77
2018-12-10T03:56:36.858Z,11.98
2018-12-10T03:59:06.525Z,12.11
2018-12-10T04:01:36.317Z,11.96
2018-12-10T04:04:05.594Z,11.91
2018-12-10T04:06:34.758Z,12.09
2018-12-10T04:09:05.779Z,12.26
2018-12-10T04:11:37.701Z,12.30
2018-12-10T04:14:06.858Z,11.81
2018-12-10T04:16:36.099Z,11.92
2018-12-10T04:19:05.335Z,12.23
2018-12-10T04:21:34.640Z,12.13
2018-12-10T04:24:04.741Z,12.03
2018-12-10T04:26:33.963Z,12.14
2018-12-10T04:29:03.147Z,12.27
2018-12-10T04:31:32.409Z,12.31
2018-12-10T04:34:02.534Z,12.28
2018-12-10T04:36:33.853Z,12.40
2018-12-10T04:39:03.852Z,12.21
2018-12-10T04:41:33.037Z,12.13
2018-12-10T04:44:02.194Z,12.10
2018-12-10T04:46:32.086Z,11.95
2018-12-10T04:49:01.882Z,12.13
2018-12-10T04:51:31.182Z,12.09
2018-12-10T04:54:00.378Z,12.20
2018-12-10T04:56:31.082Z,12.15
2018-12-10T04:59:01.463Z,12.26
2018-12-10T05:01:30.705Z,12.30
2018-12-10T05:03:59.900Z,12.05
2018-12-10T05:06:29.922Z,12.20
2018-12-10T05:08:59.248Z,12.04
2018-12-10T05:11:29.416Z,12.16
2018-12-10T05:13:58.682Z,11.89
2018-12-10T05:16:27.917Z,12.05
2018-12-10T05:18:57.084Z,12.10
2018-12-10T05:21:26.332Z,11.60
2018-12-10T05:23:56.835Z,11.80
2018-12-10T05:26:26.009Z,11.79
2018-12-10T05:28:56.183Z,11.94
2018-12-10T05:31:25.341Z,11.94
2018-12-10T05:33:54.699Z,12.24
2018-12-10T05:36:25.214Z,11.57
2018-12-10T05:38:54.462Z,11.85
2018-12-10T05:41:23.763Z,12.00
2018-12-10T05:43:53.023Z,11.87
2018-12-10T05:46:22.395Z,11.89
2018-12-10T05:48:55.366Z,11.61
2018-12-10T05:51:24.627Z,11.74
2018-12-10T05:53:53.927Z,11.85
2018-12-10T05:56:23.087Z,11.30
2018-12-10T05:58:52.571Z,11.63
2018-12-10T06:01:22.227Z,11.72
2018-12-10T06:03:51.770Z,11.71
2018-12-10T06:06:20.996Z,11.72
2018-12-10T06:08:50.343Z,11.79
2018-12-10T06:11:21.276Z,11.77
2018-12-10T06:13:50.862Z,11.77
2018-12-10T06:16:20.084Z,11.73
2018-12-10T06:18:49.347Z,11.48
2018-12-10T06:21:18.533Z,11.85
2018-12-10T06:23:48.141Z,11.82
2018-12-10T06:26:18.285Z,11.78
2018-12-10T06:28:47.496Z,11.82
2018-12-10T06:31:16.715Z,11.67
2018-12-10T06:33:45.953Z,11.80
2018-12-10T06:36:16.061Z,11.87
2018-12-10T06:40:15.764Z,11.96
2018-12-10T06:42:45.039Z,11.61
2018-12-10T06:45:15.025Z,11.40
2018-12-10T06:47:44.911Z,11.29
2018-12-10T06:50:14.099Z,11.43
2018-12-10T06:52:43.763Z,11.44
2018-12-10T06:55:13.037Z,11.54
2018-12-10T06:57:42.187Z,10.77
2018-12-10T07:00:13.412Z,11.34
2018-12-10T07:02:42.635Z,11.09
2018-12-10T07:05:13.412Z,11.56
2018-12-10T07:07:42.594Z,11.66
2018-12-10T07:10:12.526Z,11.61
2018-12-10T07:12:41.719Z,11.65
2018-12-10T07:15:11.056Z,11.36
2018-12-10T07:17:41.430Z,11.52
2018-12-10T07:20:10.636Z,11.65
2018-12-10T07:22:41.532Z,11.71
2018-12-10T07:25:10.767Z,11.67
2018-12-10T07:27:39.926Z,11.68
2018-12-10T07:30:10.484Z,11.70
2018-12-10T07:32:40.336Z,11.81
2018-12-10T07:35:09.535Z,11.63
2018-12-10T07:37:38.735Z,11.89
2018-12-10T07:40:08.225Z,11.74
2018-12-10T07:42:37.799Z,11.97
2018-12-10T07:46:37.470Z,11.56
2018-12-10T07:49:06.706Z,11.47
2018-12-10T07:51:35.871Z,11.24
2018-12-10T07:54:05.649Z,11.06
2018-12-10T07:56:35.331Z,11.43
2018-12-10T07:59:04.644Z,11.44
2018-12-10T08:01:35.207Z,11.53
2018-12-10T08:04:04.375Z,11.33
2018-12-10T08:06:34.897Z,11.28
2018-12-10T08:09:07.378Z,11.42
2018-12-10T08:11:36.595Z,11.39
2018-12-10T08:14:05.778Z,11.47
2018-12-10T08:16:35.727Z,11.69
2018-12-10T08:19:06.373Z,11.42
2018-12-10T08:21:35.543Z,11.17
2018-12-10T08:24:05.375Z,11.59
2018-12-10T08:26:34.658Z,11.82
2018-12-10T08:29:07.392Z,11.85
2018-12-10T08:31:37.175Z,11.80
2018-12-10T08:34:06.336Z,11.62
2018-12-10T08:36:35.517Z,11.67
2018-12-10T08:39:07.929Z,11.82
2018-12-10T08:41:37.112Z,11.67
2018-12-10T08:44:06.323Z,11.29
2018-12-10T08:46:35.587Z,11.66
2018-12-10T08:49:05.055Z,11.85
2018-12-10T08:51:34.577Z,11.77
2018-12-10T08:54:03.899Z,11.67
2018-12-10T08:56:34.406Z,11.82
2018-12-10T08:59:04.703Z,12.08
2018-12-10T09:01:35.912Z,12.04
2018-12-10T09:04:05.247Z,12.32
2018-12-10T09:06:34.444Z,11.88
2018-12-10T09:09:05.161Z,11.93
2018-12-10T09:11:35.444Z,11.76
2018-12-10T09:14:06.409Z,12.01
2018-12-10T09:16:35.617Z,11.69
2018-12-10T09:19:05.134Z,11.83
2018-12-10T09:21:34.330Z,12.16
2018-12-10T09:24:05.096Z,12.09
2018-12-10T09:26:34.460Z,11.88
2018-12-10T09:29:03.615Z,11.65
2018-12-10T09:31:32.928Z,12.10
2018-12-10T09:39:51.515Z,12.20
2018-12-10T09:42:24.845Z,12.14
2018-12-10T09:45:05.970Z,12.31
2018-12-10T09:47:40.204Z,12.46
2018-12-10T09:50:13.451Z,12.47
2018-12-10T09:52:49.165Z,12.42
2018-12-10T09:55:27.934Z,12.69
2018-12-10T09:58:01.993Z,12.97
2018-12-10T10:00:36.113Z,12.81
2018-12-10T10:03:07.707Z,12.90
2018-12-10T10:05:55.491Z,12.66
2018-12-10T10:08:26.041Z,12.63
2018-12-10T10:11:00.513Z,12.60
2018-12-10T10:13:31.512Z,12.51
2018-12-10T10:16:07.408Z,12.48
2018-12-10T10:18:40.432Z,12.66
2018-12-10T10:21:15.307Z,12.18
2018-12-10T10:23:46.155Z,12.27
2018-12-10T10:26:19.554Z,12.58
2018-12-10T10:31:42.187Z,12.62
2018-12-10T10:34:11.631Z,13.04
2018-12-10T10:36:41.764Z,14.06
2018-12-10T10:39:11.614Z,14.86
2018-12-10T10:41:40.975Z,16.20
2018-12-10T10:44:10.158Z,17.11
2018-12-10T10:46:39.460Z,17.63
2018-12-10T10:50:39.563Z,17.69
2018-12-10T10:53:08.763Z,16.37
2018-12-10T10:55:37.923Z,15.33
2018-12-10T10:58:07.196Z,15.06
2018-12-10T11:00:43.455Z,14.65
2018-12-10T11:03:44.528Z,14.41
2018-12-10T11:06:16.321Z,14.37
2018-12-10T11:08:45.487Z,14.16
2018-12-10T11:11:15.127Z,13.58
2018-12-10T11:13:44.845Z,13.39
2018-12-10T11:16:14.062Z,13.29
2018-12-10T11:18:43.299Z,12.66
2018-12-10T11:21:12.498Z,12.80
2018-12-10T11:23:43.644Z,12.77
2018-12-10T11:26:13.492Z,12.88
2018-12-10T11:28:42.642Z,12.78
2018-12-10T11:31:17.171Z,12.95
2018-12-10T11:33:43.426Z,13.10
2018-12-10T11:36:12.657Z,13.19
2018-12-10T11:38:42.329Z,13.10
2018-12-10T11:41:12.936Z,13.08
2018-12-10T11:43:42.489Z,13.01
2018-12-10T11:46:13.145Z,12.92
2018-12-10T11:48:42.374Z,13.05
2018-12-10T11:51:12.028Z,13.05
2018-12-10T11:53:41.394Z,12.92
2018-12-10T11:56:10.697Z,13.17
2018-12-10T11:58:40.454Z,12.94
2018-12-10T12:01:11.016Z,12.88
2018-12-10T12:03:40.727Z,13.37
2018-12-10T12:06:11.927Z,13.15
2018-12-10T12:08:42.512Z,13.22
2018-12-10T12:11:11.764Z,13.10
2018-12-10T12:13:41.481Z,12.25
2018-12-10T12:16:10.904Z,12.44
2018-12-10T12:18:40.173Z,12.20
2018-12-10T12:21:10.941Z,12.37
2018-12-10T12:23:40.204Z,12.61
2018-12-10T12:26:09.870Z,12.75
2018-12-10T12:28:39.179Z,12.50
2018-12-10T12:31:08.358Z,12.47
2018-12-10T12:33:39.022Z,12.61
2018-12-10T12:36:08.819Z,12.41
2018-12-10T12:38:38.517Z,12.48
2018-12-10T12:41:07.679Z,12.26
2018-12-10T12:43:38.502Z,12.36
2018-12-10T12:46:07.803Z,12.44
2018-12-10T12:48:37.024Z,12.38
2018-12-10T12:51:06.616Z,12.41
2018-12-10T12:53:35.801Z,12.44
2018-12-10T12:56:05.938Z,12.04
2018-12-10T12:58:36.472Z,11.89
2018-12-10T13:01:05.728Z,12.15
2018-12-10T13:03:35.365Z,12.22
2018-12-10T13:06:06.968Z,12.34
2018-12-10T13:08:36.248Z,12.27
2018-12-10T13:11:05.906Z,12.20
2018-12-10T13:13:35.111Z,12.36
2018-12-10T13:16:05.334Z,12.33
2018-12-10T13:18:35.683Z,12.42
2018-12-10T13:21:06.902Z,12.43
2018-12-10T13:23:36.187Z,12.17
2018-12-10T13:26:05.615Z,12.53
2018-12-10T13:28:35.302Z,12.53
2018-12-10T13:31:04.622Z,12.58
2018-12-10T13:33:34.407Z,12.68
2018-12-10T13:36:04.721Z,12.75
2018-12-10T13:38:36.888Z,12.81
2018-12-10T13:41:05.561Z,12.88
2018-12-10T13:43:35.783Z,12.90
2018-12-10T13:46:05.055Z,12.70
2018-12-10T13:48:34.287Z,12.97
2018-12-10T13:51:05.034Z,12.82
2018-12-10T13:53:34.657Z,12.78
2018-12-10T13:56:04.386Z,12.89
2018-12-10T13:58:34.794Z,12.87
2018-12-10T14:01:04.202Z,12.75
2018-12-10T14:03:33.685Z,12.64
2018-12-10T14:06:04.055Z,12.60
2018-12-10T14:08:33.208Z,12.80
2018-12-10T14:11:02.390Z,12.85
2018-12-10T14:13:32.895Z,12.95
2018-12-10T14:16:02.222Z,13.04
2018-12-10T14:18:32.488Z,12.90
2018-12-10T14:21:02.175Z,12.44
2018-12-10T14:23:31.483Z,12.86
2018-12-10T14:26:00.737Z,12.83
2018-12-10T14:28:30.124Z,12.90
2018-12-10T14:31:01.822Z,13.10
2018-12-10T14:33:31.125Z,12.95
2018-12-10T14:36:00.425Z,12.94
2018-12-10T14:38:29.682Z,12.61
2018-12-10T14:40:58.945Z,12.78
2018-12-10T14:43:29.216Z,12.72
2018-12-10T14:45:58.511Z,12.22
2018-12-10T14:48:28.341Z,12.77
2018-12-10T14:50:57.774Z,12.77
2018-12-10T14:53:26.936Z,12.79
2018-12-10T14:55:58.044Z,12.98
2018-12-10T14:58:27.295Z,12.87
2018-12-10T15:00:56.576Z,12.76
2018-12-10T15:03:25.863Z,12.83
2018-12-10T15:05:55.046Z,12.58
2018-12-10T15:08:25.219Z,12.60
2018-12-10T15:10:54.518Z,12.66
2018-12-10T15:13:23.699Z,12.56
2018-12-10T15:15:54.429Z,12.63
2018-12-10T15:18:23.735Z,12.57
2018-12-10T15:20:54.048Z,12.32
2018-12-10T15:23:23.227Z,12.36
2018-12-10T15:25:53.774Z,12.44
2018-12-10T15:28:23.039Z,12.23
2018-12-10T15:30:52.213Z,11.96
2018-12-10T15:33:23.011Z,12.44
2018-12-10T15:35:52.130Z,12.36
2018-12-10T15:38:21.343Z,12.42
2018-12-10T15:40:50.629Z,12.44
2018-12-10T15:43:19.875Z,12.22
2018-12-10T15:45:49.944Z,12.32
2018-12-10T15:48:20.286Z,12.34
2018-12-10T15:50:49.474Z,12.42
2018-12-10T15:53:18.642Z,12.41
2018-12-10T15:55:47.948Z,12.11
2018-12-10T15:58:18.511Z,12.28
2018-12-10T16:00:47.755Z,12.36
2018-12-10T16:03:16.995Z,12.38
2018-12-10T16:05:46.204Z,12.40
2018-12-10T16:08:15.375Z,12.23
2018-12-10T16:10:45.810Z,12.39
2018-12-10T16:13:15.061Z,12.08
2018-12-10T16:15:44.259Z,11.94
2018-12-10T16:18:15.080Z,12.19
2018-12-10T16:20:44.703Z,12.10
2018-12-10T16:23:14.496Z,12.01
2018-12-10T16:25:43.698Z,11.86
2018-12-10T16:28:12.876Z,12.04
2018-12-10T16:30:42.511Z,11.98
2018-12-10T16:33:12.612Z,12.08
2018-12-10T16:35:41.936Z,11.85
2018-12-10T16:38:11.132Z,11.99
2018-12-10T16:40:40.459Z,11.90
2018-12-10T16:43:09.726Z,11.78
2018-12-10T16:45:40.658Z,11.81
2018-12-10T16:48:09.947Z,11.86
2018-12-10T16:50:39.299Z,11.76
2018-12-10T16:53:09.092Z,11.66
2018-12-10T16:55:38.275Z,11.52
2018-12-10T16:58:08.387Z,11.69
2018-12-10T17:00:37.611Z,11.63
2018-12-10T17:03:06.852Z,11.76
2018-12-10T17:05:36.034Z,11.78
2018-12-10T17:08:05.311Z,11.82
2018-12-10T17:10:36.527Z,11.72
2018-12-10T17:13:05.707Z,11.64
2018-12-10T17:15:34.914Z,11.83
2018-12-10T17:18:04.675Z,11.67
2018-12-10T17:20:34.483Z,11.73
2018-12-10T17:23:04.204Z,11.96
2018-12-10T17:25:33.456Z,11.62
2018-12-10T17:28:02.614Z,11.64
2018-12-10T17:30:31.802Z,11.75
2018-12-10T17:33:02.372Z,11.73
2018-12-10T17:35:31.695Z,11.49
2018-12-10T17:38:01.001Z,11.44
2018-12-10T17:40:30.279Z,11.47
2018-12-10T17:42:59.551Z,11.13
2018-12-10T17:45:29.800Z,11.44
2018-12-10T17:47:59.028Z,11.05
2018-12-10T17:50:28.261Z,11.09
2018-12-10T17:52:57.438Z,11.21
2018-12-10T17:55:27.688Z,11.10
2018-12-10T17:57:58.584Z,11.21
2018-12-10T18:00:28.208Z,11.35
2018-12-10T18:02:57.392Z,11.61
2018-12-10T18:05:26.584Z,11.56
2018-12-10T18:07:55.793Z,11.74
2018-12-10T18:10:25.916Z,11.79
2018-12-10T18:12:55.756Z,11.74
2018-12-10T18:15:25.600Z,11.73
2018-12-10T18:17:54.841Z,11.73
2018-12-10T18:20:23.994Z,11.81
2018-12-10T18:22:55.418Z,11.76
2018-12-10T18:25:24.594Z,11.79
2018-12-10T18:27:54.372Z,11.67
2018-12-10T18:30:23.610Z,11.71
2018-12-10T18:32:52.830Z,11.66
2018-12-10T18:35:22.926Z,11.68
2018-12-10T18:37:52.168Z,11.74
2018-12-10T18:40:22.231Z,11.58
2018-12-10T18:42:51.403Z,11.50
2018-12-10T18:45:20.657Z,11.57
2018-12-10T18:47:51.935Z,11.73
2018-12-10T18:50:21.243Z,11.50
2018-12-10T18:52:50.491Z,11.53
2018-12-10T18:55:19.756Z,11.59
2018-12-10T18:57:49.974Z,11.41
2018-12-10T19:00:19.675Z,11.48
2018-12-10T19:02:48.889Z,11.34
2018-12-10T19:05:22.127Z,11.41
2018-12-10T19:07:52.100Z,11.61
2018-12-10T19:10:21.494Z,11.57
2018-12-10T19:12:50.911Z,11.46
2018-12-10T19:15:20.111Z,11.54
2018-12-10T19:17:49.388Z,11.22
2018-12-10T19:20:20.685Z,11.35
2018-12-10T19:22:50.752Z,11.37
2018-12-10T19:25:20.801Z,11.42
2018-12-10T19:27:50.211Z,11.30
2018-12-10T19:30:20.080Z,11.46
2018-12-10T19:32:49.891Z,11.51
2018-12-10T19:35:19.274Z,11.47
2018-12-10T19:37:48.987Z,11.58
2018-12-10T19:40:18.150Z,11.42
2018-12-10T19:42:48.662Z,11.39
2018-12-10T19:45:17.921Z,11.47
2018-12-10T19:47:47.304Z,11.45
2018-12-10T19:50:16.688Z,11.58
2018-12-10T19:52:45.956Z,11.28
2018-12-10T19:55:16.007Z,11.44
2018-12-10T19:57:45.435Z,11.34
2018-12-10T20:00:14.651Z,11.53
2018-12-10T20:02:43.820Z,11.32
2018-12-10T20:05:13.262Z,11.54
2018-12-10T20:07:45.243Z,11.63
2018-12-10T20:10:14.539Z,11.52
2018-12-10T20:12:44.839Z,11.73
2018-12-10T20:15:14.010Z,11.63
2018-12-10T20:17:43.967Z,11.50
2018-12-10T20:20:13.588Z,11.52
2018-12-10T20:22:42.758Z,11.65
2018-12-10T20:25:12.133Z,11.38
2018-12-10T20:27:43.882Z,11.61
2018-12-10T20:30:13.796Z,11.43
2018-12-10T20:32:43.600Z,11.52
2018-12-10T20:35:12.926Z,11.51
2018-12-10T20:37:42.735Z,11.85
2018-12-10T20:40:12.071Z,11.71
2018-12-10T20:42:41.792Z,11.60
2018-12-10T20:45:12.368Z,11.40
2018-12-10T20:47:42.750Z,11.48
2018-12-10T20:50:11.941Z,11.46
2018-12-10T20:54:12.235Z,11.66
2018-12-10T20:56:41.986Z,11.42
2018-12-10T20:59:11.527Z,11.39
2018-12-10T21:01:40.795Z,11.36
2018-12-10T21:04:09.972Z,11.43
2018-12-10T21:06:40.890Z,11.41
2018-12-10T21:09:10.604Z,11.61
2018-12-10T21:11:40.233Z,11.55
2018-12-10T21:14:09.463Z,11.75
2018-12-10T21:16:40.395Z,11.66
2018-12-10T21:19:09.749Z,11.67
2018-12-10T21:21:39.029Z,11.72
2018-12-10T21:24:08.766Z,11.61
2018-12-10T21:26:38.111Z,11.70
2018-12-10T21:29:07.956Z,11.70
2018-12-10T21:31:38.628Z,11.87
2018-12-10T21:34:07.787Z,11.94
2018-12-10T21:36:37.427Z,12.01
2018-12-10T21:39:08.901Z,11.73
2018-12-10T21:41:39.206Z,11.89
2018-12-10T21:44:08.387Z,11.67
2018-12-10T21:46:37.755Z,11.61
2018-12-10T21:49:07.422Z,11.44
2018-12-10T21:51:38.436Z,11.62
2018-12-10T21:54:07.805Z,11.66
2018-12-10T21:56:38.214Z,11.46
2018-12-10T21:59:08.569Z,11.58
2018-12-10T22:01:38.830Z,11.64
2018-12-10T22:04:08.027Z,11.68
2018-12-10T22:06:37.351Z,11.64
2018-12-10T22:09:06.963Z,11.48
2018-12-10T22:11:38.019Z,11.58
2018-12-10T22:14:08.680Z,11.73
2018-12-10T22:16:37.838Z,11.54
2018-12-10T22:19:07.669Z,11.51
2018-12-10T22:21:36.851Z,11.65
2018-12-10T22:24:07.015Z,11.57
2018-12-10T22:26:36.798Z,11.39
2018-12-10T22:29:05.979Z,11.39
2018-12-10T22:31:35.960Z,11.24
2018-12-10T22:34:05.141Z,11.26
2018-12-10T22:36:35.283Z,11.60
2018-12-10T22:39:06.995Z,11.51
2018-12-10T22:41:37.259Z,11.35
2018-12-10T22:44:06.451Z,11.22
2018-12-10T22:46:36.792Z,11.45
2018-12-10T22:49:06.050Z,11.58
2018-12-10T22:51:35.452Z,11.72
2018-12-10T22:54:04.797Z,11.77
2018-12-10T22:56:34.100Z,11.66
2018-12-10T22:59:05.283Z,11.47
2018-12-10T23:01:34.532Z,11.47
2018-12-10T23:04:03.949Z,11.59
2018-12-10T23:06:33.151Z,11.58
2018-12-10T23:09:02.568Z,11.43
2018-12-10T23:11:33.943Z,11.51
2018-12-10T23:14:03.268Z,11.68
2018-12-10T23:16:32.408Z,11.57
2018-12-10T23:19:02.726Z,11.39
2018-12-10T23:21:33.077Z,11.41
2018-12-10T23:24:03.286Z,11.43
2018-12-10T23:26:32.472Z,11.52
2018-12-10T23:29:01.624Z,11.46
2018-12-10T23:31:30.833Z,11.40
2018-12-10T23:34:01.392Z,11.47
2018-12-10T23:36:31.286Z,11.47
2018-12-10T23:39:00.635Z,11.50
2018-12-10T23:41:30.508Z,11.59
2018-12-10T23:44:00.379Z,11.63
2018-12-10T23:46:31.727Z,11.51
2018-12-10T23:49:00.950Z,11.55
2018-12-10T23:51:30.166Z,11.87
2018-12-10T23:53:59.392Z,11.88
2018-12-10T23:56:28.775Z,11.77
2018-12-10T23:58:58.961Z,11.88
